Time;durP1;ratioP1;P1;durP2;ratioP2;P2;SDS_P1;SDS_P2;PMS_P1;PMS_P2;Temp;Humidity;BMP_temperature;BMP_pressure;BME280_temperature;BME280_humidity;BME280_pressure;Samples;Min_cycle;Max_cycle;Signal;HPM_P1;HPM_P2
2021/07/13 00:00:09;;;;;;;3.30;1.50;;;14.50;99.90;;;;;;5071333;28;20202;-73
2021/07/13 00:02:36;;;;;;;6.15;2.30;;;14.40;99.90;;;;;;5071235;28;20263;-72
2021/07/13 00:05:03;;;;;;;3.05;1.35;;;14.40;99.90;;;;;;5071231;28;20202;-73
2021/07/13 00:07:30;;;;;;;6.05;2.13;;;14.40;99.90;;;;;;5071051;28;20206;-73
2021/07/13 00:09:57;;;;;;;2.83;1.77;;;14.30;99.90;;;;;;5070920;28;20214;-72
2021/07/13 00:12:24;;;;;;;4.32;1.90;;;14.40;99.90;;;;;;5070392;28;20210;-73
2021/07/13 00:14:53;;;;;;;6.47;2.67;;;14.30;99.90;;;;;;5070993;28;20274;-73
2021/07/13 00:17:19;;;;;;;4.10;2.03;;;14.30;99.90;;;;;;5070742;28;20202;-73
2021/07/13 00:19:46;;;;;;;3.88;1.65;;;14.40;99.90;;;;;;5071155;28;20267;-73
2021/07/13 00:22:13;;;;;;;5.75;1.85;;;14.30;99.90;;;;;;5070612;28;20198;-73
2021/07/13 00:24:40;;;;;;;6.40;1.63;;;14.30;99.90;;;;;;5070853;28;20218;-72
2021/07/13 00:27:07;;;;;;;2.78;1.42;;;14.40;99.90;;;;;;5070297;28;20259;-73
2021/07/13 00:29:34;;;;;;;6.30;1.35;;;14.30;99.90;;;;;;5071212;28;20202;-73
2021/07/13 00:32:03;;;;;;;2.45;1.52;;;14.30;99.90;;;;;;5070449;28;20235;-74
2021/07/13 00:34:30;;;;;;;7.03;2.40;;;14.30;99.90;;;;;;5070630;28;20581;-73
2021/07/13 00:36:57;;;;;;;5.85;1.55;;;14.30;99.90;;;;;;5070687;28;20673;-74
2021/07/13 00:39:24;;;;;;;4.95;2.42;;;14.20;99.90;;;;;;5070325;28;20264;-74
2021/07/13 00:41:51;;;;;;;5.72;1.70;;;14.20;99.90;;;;;;5070629;28;20206;-74
2021/07/13 00:44:20;;;;;;;4.35;1.73;;;14.20;99.90;;;;;;5070152;28;20206;-74
2021/07/13 00:46:49;;;;;;;3.92;2.00;;;14.10;99.90;;;;;;5070672;28;20210;-73
2021/07/13 00:49:19;;;;;;;2.95;2.15;;;14.20;99.90;;;;;;5070039;28;20264;-74
2021/07/13 00:51:46;;;;;;;3.28;1.45;;;14.40;99.90;;;;;;5070321;28;20218;-73
2021/07/13 00:54:15;;;;;;;4.07;1.73;;;14.40;99.90;;;;;;5069750;28;20210;-73
2021/07/13 00:56:43;;;;;;;3.25;1.70;;;14.40;99.90;;;;;;5070693;28;20203;-73
2021/07/13 00:59:11;;;;;;;2.80;1.60;;;14.40;99.90;;;;;;5070193;28;20252;-73
2021/07/13 01:01:38;;;;;;;3.28;1.63;;;14.30;99.90;;;;;;5070050;28;20666;-74
2021/07/13 01:04:08;;;;;;;6.50;1.85;;;14.30;99.90;;;;;;5070575;28;20619;-73
2021/07/13 01:06:47;;;;;;;4.45;1.83;;;14.50;99.90;;;;;;5070063;28;20206;-73
2021/07/13 01:09:22;;;;;;;4.22;2.20;;;14.40;99.90;;;;;;5070118;28;20294;-73
2021/07/13 01:11:57;;;;;;;2.97;1.83;;;14.50;99.90;;;;;;5070318;28;20282;-73
2021/07/13 01:14:33;;;;;;;6.13;2.28;;;14.50;99.90;;;;;;5069893;28;20213;-73
2021/07/13 01:17:06;;;;;;;2.83;1.73;;;14.60;99.90;;;;;;5070200;28;20247;-73
2021/07/13 01:20:03;;;;;;;2.83;1.80;;;14.60;99.90;;;;;;5070463;28;20744;-73
2021/07/13 01:22:35;;;;;;;4.55;2.25;;;14.60;99.90;;;;;;5070179;28;20206;-73
2021/07/13 01:25:12;;;;;;;3.70;1.73;;;14.60;99.90;;;;;;5073826;28;20220;-73
2021/07/13 01:28:10;;;;;;;4.22;2.20;;;14.60;99.90;;;;;;5074378;28;20210;-73
2021/07/13 01:30:41;;;;;;;12.77;2.75;;;14.60;99.90;;;;;;5061075;28;20230;-73
2021/07/13 01:33:12;;;;;;;7.57;2.15;;;14.70;99.90;;;;;;5073618;28;20680;-73
2021/07/13 01:35:43;;;;;;;11.60;2.38;;;14.70;99.90;;;;;;5073673;28;20719;-73
2021/07/13 01:38:13;;;;;;;4.80;1.77;;;14.70;99.90;;;;;;5073838;28;20210;-73
2021/07/13 01:40:43;;;;;;;6.15;2.70;;;14.70;99.90;;;;;;5073893;28;20289;-73
2021/07/13 01:43:12;;;;;;;4.85;1.77;;;14.60;99.90;;;;;;5073278;28;20658;-72
2021/07/13 01:45:41;;;;;;;3.65;2.10;;;14.60;99.90;;;;;;5073481;28;20738;-72
2021/07/13 01:48:10;;;;;;;2.70;1.92;;;14.60;99.90;;;;;;5073203;28;20685;-71
2021/07/13 01:50:40;;;;;;;7.53;2.00;;;14.60;99.90;;;;;;5073348;28;20234;-73
2021/07/13 01:53:08;;;;;;;6.85;2.03;;;14.60;99.90;;;;;;5073698;28;20202;-73
2021/07/13 01:55:35;;;;;;;5.15;1.60;;;14.70;99.90;;;;;;5073841;28;20206;-72
2021/07/13 01:58:03;;;;;;;6.40;2.22;;;14.70;99.90;;;;;;5073455;28;20676;-73
2021/07/13 02:00:32;;;;;;;3.42;1.70;;;14.70;99.90;;;;;;5073590;28;20206;-73
2021/07/13 02:03:01;;;;;;;4.75;1.90;;;14.70;99.90;;;;;;5073323;28;20215;-73
2021/07/13 02:05:30;;;;;;;5.35;1.83;;;14.80;99.90;;;;;;5073122;28;20207;-73
2021/07/13 02:07:59;;;;;;;2.65;1.75;;;14.90;99.90;;;;;;5073566;28;20210;-73
2021/07/13 02:10:27;;;;;;;6.10;2.10;;;14.80;99.90;;;;;;5072861;28;20210;-72
2021/07/13 02:12:54;;;;;;;4.75;1.65;;;14.80;99.90;;;;;;5073434;28;20210;-72
2021/07/13 02:15:21;;;;;;;6.72;1.88;;;14.80;99.90;;;;;;5072494;28;20576;-73
2021/07/13 02:17:50;;;;;;;2.15;1.45;;;14.70;99.90;;;;;;5073199;28;20210;-72
2021/07/13 02:20:19;;;;;;;3.33;1.98;;;14.60;99.90;;;;;;5072605;28;20293;-72
2021/07/13 02:22:46;;;;;;;7.00;2.15;;;14.60;99.90;;;;;;5073135;28;20634;-72
2021/07/13 02:25:14;;;;;;;2.97;1.85;;;14.60;99.90;;;;;;5072367;28;20218;-72
2021/07/13 02:27:46;;;;;;;2.63;1.55;;;14.60;99.90;;;;;;5072906;28;20256;-72
2021/07/13 02:30:14;;;;;;;2.50;2.28;;;14.60;99.90;;;;;;5072325;28;20217;-72
2021/07/13 02:32:47;;;;;;;3.22;1.80;;;14.50;99.90;;;;;;5073244;28;20234;-72
2021/07/13 02:35:18;;;;;;;5.88;1.73;;;14.50;99.90;;;;;;5071329;28;20297;-72
2021/07/13 02:37:47;;;;;;;4.00;1.80;;;14.40;99.90;;;;;;5073051;28;20210;-72
2021/07/13 02:40:16;;;;;;;3.92;1.83;;;14.30;99.90;;;;;;5072644;28;20214;-72
2021/07/13 02:42:45;;;;;;;2.50;2.00;;;14.20;99.90;;;;;;5072895;28;20260;-72
2021/07/13 02:45:13;;;;;;;2.85;2.08;;;14.30;99.90;;;;;;5072799;28;20214;-72
2021/07/13 02:47:43;;;;;;;5.43;1.73;;;14.30;99.90;;;;;;5072601;28;20232;-72
2021/07/13 02:50:11;;;;;;;5.38;1.95;;;14.30;99.90;;;;;;5072455;28;20293;-72
2021/07/13 02:52:40;;;;;;;1.83;1.65;;;14.40;99.90;;;;;;5069792;28;20284;-72
2021/07/13 02:55:11;;;;;;;5.13;2.13;;;14.50;99.90;;;;;;5072114;28;20202;-72
2021/07/13 02:57:40;;;;;;;2.83;1.90;;;14.50;99.90;;;;;;5072123;28;20206;-72
2021/07/13 03:00:09;;;;;;;3.15;1.92;;;14.50;99.90;;;;;;5071721;28;20204;-72
2021/07/13 03:02:37;;;;;;;4.13;1.75;;;14.60;99.90;;;;;;5072574;28;20259;-72
2021/07/13 03:05:05;;;;;;;5.22;1.67;;;14.50;99.90;;;;;;5072301;28;20210;-72
2021/07/13 03:07:33;;;;;;;5.57;1.88;;;14.60;99.90;;;;;;5072500;28;20636;-72
2021/07/13 03:10:03;;;;;;;4.30;1.70;;;14.60;99.90;;;;;;5072572;28;20202;-72
2021/07/13 03:12:31;;;;;;;4.38;1.40;;;14.50;99.90;;;;;;5072075;28;20298;-72
2021/07/13 03:14:59;;;;;;;5.78;1.42;;;14.50;99.90;;;;;;5072210;28;20206;-72
2021/07/13 03:17:27;;;;;;;6.90;2.05;;;14.50;99.90;;;;;;5071466;28;20617;-72
2021/07/13 03:19:54;;;;;;;5.57;1.75;;;14.50;99.90;;;;;;5072037;28;20211;-72
2021/07/13 03:22:24;;;;;;;2.80;1.52;;;14.60;99.90;;;;;;5071668;28;20214;-72
2021/07/13 03:24:53;;;;;;;2.67;2.38;;;14.50;99.90;;;;;;5071745;28;20623;-72
2021/07/13 03:27:22;;;;;;;3.75;1.38;;;14.50;99.90;;;;;;5071446;28;20267;-72
2021/07/13 03:29:51;;;;;;;6.28;2.20;;;14.50;99.90;;;;;;5071861;28;20292;-72
2021/07/13 03:32:19;;;;;;;5.90;2.55;;;14.50;99.90;;;;;;5071292;28;20292;-72
2021/07/13 03:34:47;;;;;;;4.63;2.15;;;14.40;99.90;;;;;;5071266;28;20202;-72
2021/07/13 03:37:15;;;;;;;4.07;1.98;;;14.40;99.90;;;;;;5071545;28;20258;-72
2021/07/13 03:39:44;;;;;;;1.45;1.35;;;14.50;99.90;;;;;;5071357;28;20278;-72
2021/07/13 03:42:12;;;;;;;2.33;1.90;;;14.60;99.90;;;;;;5071324;28;20206;-72
2021/07/13 03:44:41;;;;;;;3.13;2.00;;;14.60;99.90;;;;;;5071514;28;20202;-72
2021/07/13 03:47:12;;;;;;;4.03;1.95;;;14.60;99.90;;;;;;5070865;28;20208;-72
2021/07/13 03:49:39;;;;;;;3.47;1.70;;;14.70;99.90;;;;;;5071451;28;20636;-72
2021/07/13 03:52:07;;;;;;;2.72;1.17;;;14.70;99.90;;;;;;5071279;28;20777;-73
2021/07/13 03:54:34;;;;;;;3.05;1.85;;;14.60;99.90;;;;;;5071309;28;20217;-72
2021/07/13 03:57:01;;;;;;;3.58;1.90;;;14.40;99.90;;;;;;5071648;28;20198;-71
2021/07/13 03:59:28;;;;;;;4.35;1.77;;;14.50;99.90;;;;;;5070787;28;20210;-72
2021/07/13 04:01:56;;;;;;;3.88;2.42;;;14.50;99.90;;;;;;5070789;28;20285;-72
2021/07/13 04:04:23;;;;;;;2.60;1.50;;;14.50;99.90;;;;;;5070894;28;20263;-72
2021/07/13 04:06:50;;;;;;;2.72;1.67;;;14.50;99.90;;;;;;5070871;28;20643;-71
2021/07/13 04:09:17;;;;;;;3.22;2.17;;;14.40;99.90;;;;;;5070763;28;20244;-71
2021/07/13 04:11:45;;;;;;;4.10;1.67;;;14.40;99.90;;;;;;5070686;28;20230;-72
2021/07/13 04:14:12;;;;;;;5.63;1.75;;;14.40;99.90;;;;;;5070478;28;20204;-72
2021/07/13 04:16:39;;;;;;;4.45;1.73;;;14.40;99.90;;;;;;5071228;28;20268;-72
2021/07/13 04:19:07;;;;;;;4.35;1.90;;;14.40;99.90;;;;;;5070736;28;20198;-72
2021/07/13 04:21:34;;;;;;;3.67;1.85;;;14.30;99.90;;;;;;5071458;28;20218;-72
2021/07/13 04:24:01;;;;;;;7.22;2.10;;;14.30;99.90;;;;;;5070891;28;20206;-71
2021/07/13 04:26:28;;;;;;;4.68;1.63;;;14.40;99.90;;;;;;5070208;28;20214;-71
2021/07/13 04:28:55;;;;;;;3.45;1.98;;;14.50;99.90;;;;;;5070755;28;20206;-70
2021/07/13 04:31:22;;;;;;;8.20;2.20;;;14.60;99.90;;;;;;5070677;28;20202;-71
2021/07/13 04:33:49;;;;;;;2.42;1.42;;;14.60;99.90;;;;;;5070796;28;20206;-72
2021/07/13 04:36:18;;;;;;;6.60;2.70;;;14.60;99.90;;;;;;5070516;28;20206;-72
2021/07/13 04:38:45;;;;;;;5.03;1.92;;;14.70;99.90;;;;;;5070208;28;20267;-72
2021/07/13 04:41:12;;;;;;;5.63;2.13;;;14.80;99.90;;;;;;5069808;28;20202;-71
2021/07/13 04:43:39;;;;;;;4.70;2.28;;;14.90;99.90;;;;;;5070667;28;20580;-72
2021/07/13 04:46:06;;;;;;;5.03;2.13;;;14.90;99.90;;;;;;5070088;28;20599;-71
2021/07/13 04:48:33;;;;;;;3.67;2.20;;;14.90;99.90;;;;;;5071033;28;20206;-71
2021/07/13 04:51:00;;;;;;;2.90;2.05;;;14.90;99.90;;;;;;5070464;28;20666;-71
2021/07/13 04:53:28;;;;;;;2.97;1.98;;;14.80;99.90;;;;;;5069740;28;20279;-72
2021/07/13 04:55:55;;;;;;;5.70;2.45;;;14.90;99.90;;;;;;5070412;28;20264;-72
2021/07/13 04:58:22;;;;;;;3.33;1.92;;;15.10;99.90;;;;;;5069666;28;20240;-72
2021/07/13 05:00:49;;;;;;;6.50;1.95;;;15.10;99.90;;;;;;5070147;28;20267;-72
2021/07/13 05:03:16;;;;;;;2.80;2.13;;;15.00;99.90;;;;;;5069853;28;20214;-72
2021/07/13 05:05:43;;;;;;;7.32;1.77;;;14.90;99.90;;;;;;5070314;28;20806;-72
2021/07/13 05:08:10;;;;;;;6.22;2.90;;;14.70;99.90;;;;;;5069683;28;20248;-72
2021/07/13 05:10:38;;;;;;;3.80;2.45;;;14.70;99.90;;;;;;5070242;28;20259;-73
2021/07/13 05:13:09;;;;;;;3.47;2.33;;;14.50;99.90;;;;;;5070220;28;20291;-75
2021/07/13 05:15:36;;;;;;;5.65;2.83;;;14.50;99.90;;;;;;5070133;28;20198;-75
2021/07/13 05:18:04;;;;;;;8.18;3.28;;;14.40;99.90;;;;;;5070489;28;20681;-75
2021/07/13 05:20:31;;;;;;;7.72;2.95;;;14.30;99.90;;;;;;5070325;28;20199;-74
2021/07/13 05:23:06;;;;;;;4.07;3.08;;;14.30;99.90;;;;;;5070020;28;20201;-74
2021/07/13 05:25:33;;;;;;;3.85;2.45;;;14.40;99.90;;;;;;5070236;28;20217;-74
2021/07/13 05:28:02;;;;;;;5.80;2.88;;;14.40;99.90;;;;;;5070662;28;20256;-74
2021/07/13 05:30:29;;;;;;;4.53;3.28;;;14.60;99.90;;;;;;5069472;28;20735;-75
2021/07/13 05:32:56;;;;;;;5.43;3.28;;;14.60;99.90;;;;;;5069905;28;20584;-75
2021/07/13 05:35:24;;;;;;;6.82;2.97;;;14.50;99.90;;;;;;5069459;28;20213;-75
2021/07/13 05:37:53;;;;;;;6.28;2.78;;;14.50;99.90;;;;;;5069923;28;20727;-75
2021/07/13 05:40:23;;;;;;;4.35;3.13;;;14.50;99.90;;;;;;5069426;28;20669;-75
2021/07/13 05:42:50;;;;;;;4.07;2.97;;;14.50;99.90;;;;;;5069929;28;20213;-75
2021/07/13 05:45:19;;;;;;;5.68;2.97;;;14.50;99.90;;;;;;5069534;28;20211;-73
2021/07/13 05:47:46;;;;;;;3.75;2.53;;;14.60;99.90;;;;;;5069594;28;20199;-74
2021/07/13 05:50:13;;;;;;;5.65;2.72;;;14.70;99.90;;;;;;5069189;28;20666;-74
2021/07/13 05:52:41;;;;;;;4.45;3.10;;;14.60;99.90;;;;;;5072224;28;20643;-72
2021/07/13 05:55:08;;;;;;;3.08;2.58;;;14.70;99.90;;;;;;5069476;28;20206;-74
2021/07/13 05:57:36;;;;;;;8.65;3.03;;;14.60;99.90;;;;;;5068817;28;20255;-74
2021/07/13 06:00:04;;;;;;;6.20;3.83;;;14.80;99.90;;;;;;5072415;28;20214;-75
2021/07/13 06:02:32;;;;;;;4.95;2.53;;;14.90;99.90;;;;;;5069311;28;20229;-74
2021/07/13 06:04:59;;;;;;;4.28;3.05;;;15.10;99.90;;;;;;5069300;28;20735;-75
2021/07/13 06:07:26;;;;;;;4.72;3.38;;;15.40;99.90;;;;;;5069509;28;21073;-78
2021/07/13 06:09:54;;;;;;;8.27;3.28;;;15.40;99.90;;;;;;5071106;28;20228;-81
2021/07/13 06:12:21;;;;;;;5.10;2.67;;;15.30;99.90;;;;;;5072878;28;20230;-72
2021/07/13 06:14:48;;;;;;;3.88;2.92;;;15.30;99.90;;;;;;5074162;28;20260;-75
2021/07/13 06:17:15;;;;;;;5.75;2.80;;;15.40;99.90;;;;;;5072562;28;20631;-74
2021/07/13 06:19:43;;;;;;;5.00;2.95;;;15.50;99.90;;;;;;5073139;28;20210;-75
2021/07/13 06:22:10;;;;;;;4.97;2.92;;;15.60;99.90;;;;;;5072747;28;20259;-75
2021/07/13 06:24:37;;;;;;;7.90;3.42;;;15.40;99.90;;;;;;5073062;28;20222;-74
2021/07/13 06:27:04;;;;;;;3.83;2.72;;;15.40;99.90;;;;;;5073395;28;20256;-75
2021/07/13 06:29:31;;;;;;;3.47;2.58;;;15.30;99.90;;;;;;5073196;28;20202;-75
2021/07/13 06:31:58;;;;;;;5.13;3.08;;;15.40;99.90;;;;;;5072057;28;20206;-75
2021/07/13 06:34:25;;;;;;;2.65;2.42;;;15.40;99.90;;;;;;5070390;28;20214;-74
2021/07/13 06:36:53;;;;;;;5.00;2.65;;;15.40;99.90;;;;;;5071876;28;20210;-74
2021/07/13 06:39:20;;;;;;;2.55;1.88;;;15.40;99.90;;;;;;5072375;28;20210;-78
2021/07/13 06:41:47;;;;;;;6.35;3.08;;;15.40;99.90;;;;;;5071947;28;20691;-76
2021/07/13 06:44:14;;;;;;;3.78;2.85;;;15.50;99.90;;;;;;5071967;28;20685;-74
2021/07/13 06:46:41;;;;;;;4.75;3.00;;;15.50;99.90;;;;;;5073566;28;20259;-75
2021/07/13 06:49:08;;;;;;;6.05;3.40;;;15.60;99.90;;;;;;5073918;28;20214;-73
2021/07/13 06:51:35;;;;;;;6.32;3.15;;;15.50;99.90;;;;;;5081491;28;20206;-76
2021/07/13 06:54:04;;;;;;;5.78;2.95;;;15.50;99.90;;;;;;5071746;28;20771;-74
2021/07/13 06:56:31;;;;;;;8.85;2.90;;;15.50;99.90;;;;;;5070083;28;20210;-75
2021/07/13 06:58:58;;;;;;;5.75;2.80;;;15.60;99.90;;;;;;5072189;28;20225;-74
2021/07/13 07:01:25;;;;;;;5.20;3.00;;;15.60;99.90;;;;;;5077523;28;20259;-75
2021/07/13 07:03:52;;;;;;;6.55;3.95;;;15.60;99.90;;;;;;5073351;28;20205;-74
2021/07/13 07:06:19;;;;;;;6.20;3.95;;;15.60;99.90;;;;;;5072159;28;20206;-73
2021/07/13 07:08:45;;;;;;;6.13;3.72;;;15.70;99.90;;;;;;5078283;28;20637;-74
2021/07/13 07:11:14;;;;;;;3.92;3.15;;;15.80;99.90;;;;;;5075536;28;20206;-74
2021/07/13 07:13:41;;;;;;;4.72;2.70;;;15.90;99.90;;;;;;5076701;28;20234;-76
2021/07/13 07:16:09;;;;;;;5.20;3.22;;;16.10;99.90;;;;;;5072521;28;20255;-72
2021/07/13 07:18:36;;;;;;;5.90;3.60;;;16.20;99.90;;;;;;5080736;28;20206;-73
2021/07/13 07:21:03;;;;;;;3.75;3.22;;;16.30;99.90;;;;;;5070742;28;20202;-73
2021/07/13 07:23:30;;;;;;;5.38;2.83;;;16.30;99.90;;;;;;5076047;28;20202;-72
2021/07/13 07:25:57;;;;;;;9.98;2.78;;;16.20;99.90;;;;;;5070895;28;20215;-72
2021/07/13 07:28:26;;;;;;;3.47;3.17;;;16.00;99.90;;;;;;5070625;28;20731;-73
2021/07/13 07:30:53;;;;;;;2.13;2.00;;;16.10;99.90;;;;;;5071969;28;20202;-73
2021/07/13 07:33:20;;;;;;;4.18;2.38;;;16.20;99.90;;;;;;5073657;28;20234;-72
2021/07/13 07:35:47;;;;;;;5.55;2.30;;;16.20;99.90;;;;;;5076952;28;20247;-75
2021/07/13 07:38:15;;;;;;;3.10;2.80;;;16.10;99.90;;;;;;5069283;28;20203;-72
2021/07/13 07:40:42;;;;;;;2.58;2.10;;;16.20;99.90;;;;;;5074243;28;20279;-73
2021/07/13 07:43:09;;;;;;;4.85;3.47;;;16.40;99.90;;;;;;5075360;28;20264;-73
2021/07/13 07:45:38;;;;;;;3.28;2.28;;;16.40;99.90;;;;;;5079526;28;20209;-72
2021/07/13 07:48:06;;;;;;;4.90;3.50;;;16.20;99.90;;;;;;5075845;28;20198;-72
2021/07/13 07:50:33;;;;;;;5.30;2.72;;;16.20;99.90;;;;;;5080430;28;20202;-73
2021/07/13 07:53:00;;;;;;;4.40;2.50;;;16.40;99.90;;;;;;5075753;28;20679;-75
2021/07/13 07:55:29;;;;;;;4.28;2.75;;;16.60;99.90;;;;;;5066506;28;20210;-74
2021/07/13 07:57:56;;;;;;;3.20;2.22;;;16.60;99.90;;;;;;5070114;28;20201;-75
2021/07/13 08:00:23;;;;;;;2.50;1.90;;;16.80;99.90;;;;;;5071605;28;20624;-73
2021/07/13 08:02:51;;;;;;;2.08;1.85;;;16.70;99.90;;;;;;5067688;28;20213;-72
2021/07/13 08:05:19;;;;;;;2.42;1.90;;;16.50;99.90;;;;;;5071874;28;20244;-73
2021/07/13 08:07:47;;;;;;;2.35;1.90;;;16.60;99.90;;;;;;5072426;28;20218;-72
2021/07/13 08:10:15;;;;;;;4.30;2.22;;;16.60;99.90;;;;;;5073771;28;20644;-73
2021/07/13 08:12:43;;;;;;;8.52;2.20;;;16.80;99.90;;;;;;5073112;28;20237;-73
2021/07/13 08:15:11;;;;;;;3.20;2.28;;;17.10;99.90;;;;;;5073786;28;20288;-71
2021/07/13 08:17:38;;;;;;;1.75;1.63;;;17.30;99.90;;;;;;5070215;28;20206;-74
2021/07/13 08:20:10;;;;;;;3.63;2.25;;;17.60;99.90;;;;;;5081887;28;20262;-73
2021/07/13 08:22:37;;;;;;;4.22;1.88;;;17.70;99.90;;;;;;5072031;28;20666;-73
2021/07/13 08:25:05;;;;;;;2.55;1.55;;;18.00;99.90;;;;;;5069874;28;20210;-73
2021/07/13 08:27:32;;;;;;;4.40;1.90;;;18.20;99.90;;;;;;5080845;28;20201;-74
2021/07/13 08:29:59;;;;;;;2.35;1.75;;;18.20;99.90;;;;;;5079098;28;20201;-74
2021/07/13 08:32:26;;;;;;;3.25;2.05;;;18.10;99.90;;;;;;5070742;28;20461;-72
2021/07/13 08:34:53;;;;;;;2.60;1.98;;;18.30;99.90;;;;;;5072058;28;20264;-72
2021/07/13 08:37:21;;;;;;;3.15;2.00;;;18.10;99.90;;;;;;5072113;28;20206;-72
2021/07/13 08:39:48;;;;;;;3.03;1.95;;;18.30;99.90;;;;;;5077298;28;20673;-70
2021/07/13 08:42:16;;;;;;;2.63;2.03;;;18.50;99.90;;;;;;5077291;28;20259;-70
2021/07/13 08:44:44;;;;;;;3.72;2.10;;;19.10;99.90;;;;;;5084198;28;20263;-70
2021/07/13 08:47:15;;;;;;;3.47;2.17;;;18.80;99.90;;;;;;5071441;28;20633;-71
2021/07/13 08:49:44;;;;;;;2.30;1.92;;;18.50;99.90;;;;;;5075449;28;20233;-71
2021/07/13 08:52:11;;;;;;;2.80;2.10;;;18.50;99.90;;;;;;5069451;28;20198;-71
2021/07/13 08:54:40;;;;;;;3.47;2.40;;;18.50;99.90;;;;;;5075436;28;20718;-69
2021/07/13 08:57:10;;;;;;;3.30;2.15;;;18.50;99.90;;;;;;5073223;28;20258;-71
2021/07/13 08:59:37;;;;;;;4.57;2.58;;;18.60;99.90;;;;;;5068828;28;20580;-71
2021/07/13 09:02:04;;;;;;;2.72;2.10;;;18.80;99.90;;;;;;5069250;28;20261;-69
2021/07/13 09:04:35;;;;;;;4.60;1.77;;;18.60;99.90;;;;;;5070702;28;20209;-70
2021/07/13 09:07:06;;;;;;;3.50;2.38;;;18.50;99.90;;;;;;5062235;28;20201;-72
2021/07/13 09:09:35;;;;;;;3.97;2.47;;;18.10;99.90;;;;;;5072525;28;20209;-72
2021/07/13 09:12:09;;;;;;;2.22;2.03;;;18.00;99.90;;;;;;5073258;28;20255;-69
2021/07/13 09:14:52;;;;;;;2.08;1.98;;;17.90;99.90;;;;;;5077676;28;20217;-72
2021/07/13 09:17:36;;;;;;;3.22;2.20;;;17.70;99.90;;;;;;5069845;28;20283;-69
2021/07/13 09:20:11;;;;;;;3.97;2.40;;;18.20;99.90;;;;;;5073229;28;20677;-71
2021/07/13 09:22:38;;;;;;;3.58;2.10;;;18.50;99.90;;;;;;5064742;28;20681;-71
2021/07/13 09:25:27;;;;;;;3.70;1.90;;;18.80;99.90;;;;;;5077738;28;20217;-70
2021/07/13 09:28:09;;;;;;;2.75;1.73;;;19.00;99.90;;;;;;5067774;28;20206;-73
2021/07/13 09:30:37;;;;;;;2.25;2.08;;;19.10;99.90;;;;;;5071930;28;20206;-72
2021/07/13 09:33:15;;;;;;;2.88;2.40;;;19.60;99.90;;;;;;5077286;28;20238;-71
2021/07/13 09:36:08;;;;;;;2.45;2.10;;;19.90;99.90;;;;;;5080775;28;20293;-74
2021/07/13 09:38:37;;;;;;;2.00;1.80;;;19.60;99.90;;;;;;5076498;28;20256;-71
2021/07/13 09:41:09;;;;;;;2.83;2.47;;;18.70;99.90;;;;;;5079878;28;20268;-71
2021/07/13 09:43:51;;;;;;;5.45;2.72;;;18.90;99.90;;;;;;5063173;28;20242;-70
2021/07/13 09:46:32;;;;;;;2.25;2.00;;;19.30;99.90;;;;;;5075415;28;20217;-69
2021/07/13 09:49:17;;;;;;;2.85;2.50;;;19.70;99.90;;;;;;5084110;28;20270;-72
2021/07/13 09:51:46;;;;;;;5.13;2.88;;;19.00;99.90;;;;;;5071779;28;20207;-70
2021/07/13 09:54:34;;;;;;;5.22;3.25;;;18.20;99.90;;;;;;5073070;28;20230;-73
2021/07/13 09:57:02;;;;;;;3.38;3.08;;;17.40;99.90;;;;;;5075935;28;20206;-70
2021/07/13 09:59:31;;;;;;;4.63;3.33;;;17.30;99.90;;;;;;5078301;28;20630;-71
2021/07/13 10:01:58;;;;;;;4.80;3.20;;;17.50;99.90;;;;;;5073217;28;20226;-71
2021/07/13 10:04:26;;;;;;;8.35;3.83;;;17.70;99.90;;;;;;5073376;28;20298;-72
2021/07/13 10:06:55;;;;;;;3.53;3.08;;;17.60;99.90;;;;;;5073460;28;20260;-72
2021/07/13 10:09:29;;;;;;;5.55;2.90;;;17.50;99.90;;;;;;5073384;28;20641;-72
2021/07/13 10:11:57;;;;;;;4.57;2.80;;;17.30;99.90;;;;;;5069510;28;20236;-72
2021/07/13 10:14:24;;;;;;;6.57;3.92;;;17.60;99.90;;;;;;5072950;28;20599;-74
2021/07/13 10:16:54;;;;;;;5.30;3.70;;;19.30;99.90;;;;;;5072846;28;20202;-72
2021/07/13 10:19:21;;;;;;;5.82;3.08;;;21.70;99.90;;;;;;5072924;28;20206;-72
2021/07/13 10:21:49;;;;;;;3.80;2.20;;;22.80;99.90;;;;;;5073382;28;20210;-74
2021/07/13 10:24:21;;;;;;;2.97;2.67;;;23.70;99.90;;;;;;5072467;28;20208;-72
2021/07/13 10:26:50;;;;;;;6.53;2.85;;;22.40;99.90;;;;;;5072810;28;20202;-73
2021/07/13 10:29:43;;;;;;;5.28;3.20;;;21.00;99.90;;;;;;5072333;28;20739;-72
2021/07/13 10:32:34;;;;;;;6.38;2.70;;;21.00;99.90;;;;;;5072804;28;20206;-72
2021/07/13 10:35:05;;;;;;;5.68;3.13;;;21.30;99.90;;;;;;5072401;28;20291;-74
2021/07/13 10:37:35;;;;;;;3.75;3.15;;;20.90;99.90;;;;;;5073106;28;20633;-72
2021/07/13 10:40:05;;;;;;;5.85;3.65;;;21.10;99.90;;;;;;5073172;28;20211;-73
2021/07/13 10:42:51;;;;;;;2.80;2.60;;;20.60;99.90;;;;;;5072953;28;20564;-72
2021/07/13 10:45:23;;;;;;;5.50;3.55;;;19.50;99.90;;;;;;5072124;28;20202;-71
2021/07/13 10:48:00;;;;;;;4.32;2.70;;;19.00;99.90;;;;;;5072472;28;20301;-74
2021/07/13 10:50:49;;;;;;;3.75;3.03;;;18.30;99.90;;;;;;5072570;28;20214;-72
2021/07/13 10:53:21;;;;;;;6.70;3.22;;;18.20;99.90;;;;;;5058795;28;20199;-72
2021/07/13 10:56:07;;;;;;;7.20;3.10;;;18.30;99.90;;;;;;5071847;28;20587;-73
2021/07/13 10:58:44;;;;;;;4.68;3.15;;;18.50;99.90;;;;;;5072452;28;20734;-72
2021/07/13 11:01:29;;;;;;;3.30;2.92;;;18.20;99.90;;;;;;5071997;28;20212;-73
2021/07/13 11:04:24;;;;;;;5.82;3.05;;;18.00;99.90;;;;;;5072567;28;20252;-75
2021/07/13 11:06:57;;;;;;;4.80;1.70;;;16.80;99.90;;;;;;5072129;28;20205;-73
2021/07/13 11:09:36;;;;;;;4.85;2.40;;;16.00;99.90;;;;;;5071797;28;20209;-73
2021/07/13 11:12:17;;;;;;;5.13;2.63;;;16.00;99.90;;;;;;5071477;28;20202;-72
2021/07/13 11:15:01;;;;;;;4.55;2.80;;;16.50;99.90;;;;;;5071942;28;20226;-72
2021/07/13 11:17:32;;;;;;;2.97;2.10;;;17.30;99.90;;;;;;5071797;28;20292;-71
2021/07/13 11:20:10;;;;;;;3.13;2.83;;;18.30;99.90;;;;;;5071736;28;20210;-72
2021/07/13 11:22:42;;;;;;;4.22;2.92;;;18.50;99.90;;;;;;5071043;28;20267;-72
2021/07/13 11:25:22;;;;;;;5.18;2.47;;;18.80;99.90;;;;;;5065761;28;20793;-72
2021/07/13 11:28:00;;;;;;;4.78;2.65;;;18.80;99.90;;;;;;5069229;28;20288;-71
2021/07/13 11:30:27;;;;;;;3.63;2.53;;;18.60;99.90;;;;;;5082124;28;20256;-72
2021/07/13 11:33:01;;;;;;;6.32;2.92;;;18.30;99.90;;;;;;5085024;28;20210;-72
2021/07/13 11:35:30;;;;;;;6.40;2.45;;;18.00;99.90;;;;;;5086442;28;20270;-72
2021/07/13 11:37:57;;;;;;;5.28;3.22;;;18.00;99.90;;;;;;5086537;28;20271;-72
2021/07/13 11:40:25;;;;;;;5.07;3.13;;;17.90;99.90;;;;;;5077331;28;20264;-72
2021/07/13 11:42:57;;;;;;;4.43;2.80;;;17.80;99.90;;;;;;5082248;28;20228;-73
2021/07/13 11:45:24;;;;;;;9.88;3.55;;;17.60;99.90;;;;;;5082052;28;20213;-72
2021/07/13 11:48:00;;;;;;;3.83;2.75;;;17.60;99.90;;;;;;5081562;28;20252;-72
2021/07/13 11:50:29;;;;;;;3.88;2.70;;;17.70;99.90;;;;;;5084209;28;20205;-71
2021/07/13 11:52:57;;;;;;;5.05;3.40;;;17.20;99.90;;;;;;5083270;28;20206;-71
2021/07/13 11:55:25;;;;;;;3.35;3.03;;;17.20;99.90;;;;;;5080488;28;20241;-70
2021/07/13 11:57:52;;;;;;;7.63;4.00;;;17.20;99.90;;;;;;5088556;28;20637;-68
2021/07/13 12:00:27;;;;;;;6.80;3.53;;;17.20;99.90;;;;;;5088423;28;20613;-70
2021/07/13 12:02:55;;;;;;;5.10;3.35;;;17.90;99.90;;;;;;5079244;28;20641;-74
2021/07/13 12:05:22;;;;;;;3.45;2.90;;;18.00;99.90;;;;;;5070722;28;20289;-74
2021/07/13 12:07:50;;;;;;;3.13;2.30;;;18.00;99.90;;;;;;5070847;28;20256;-74
2021/07/13 12:10:17;;;;;;;4.47;2.45;;;18.00;99.90;;;;;;5070238;28;20264;-72
2021/07/13 12:12:44;;;;;;;3.72;2.63;;;18.00;99.90;;;;;;5070991;28;20214;-71
2021/07/13 12:15:12;;;;;;;4.85;1.90;;;18.00;99.90;;;;;;5070204;28;20280;-70
2021/07/13 12:17:40;;;;;;;4.13;2.38;;;18.00;99.90;;;;;;5070531;28;20283;-73
2021/07/13 12:20:11;;;;;;;7.75;2.80;;;17.80;99.90;;;;;;5070594;28;20293;-73
2021/07/13 12:22:38;;;;;;;2.28;1.77;;;17.60;99.90;;;;;;5067530;28;20590;-71
2021/07/13 12:25:09;;;;;;;3.30;2.30;;;17.50;99.90;;;;;;5070473;28;20252;-71
2021/07/13 12:27:36;;;;;;;6.03;2.65;;;18.10;99.90;;;;;;5075401;28;20206;-70
2021/07/13 12:30:13;;;;;;;5.38;2.03;;;18.80;99.90;;;;;;5082033;28;20231;-71
2021/07/13 12:32:41;;;;;;;3.80;1.95;;;19.20;99.90;;;;;;5073930;28;20695;-72
2021/07/13 12:35:11;;;;;;;2.13;1.70;;;19.40;99.90;;;;;;5068192;28;20234;-71
2021/07/13 12:37:38;;;;;;;4.35;2.17;;;19.60;99.90;;;;;;5068947;28;20304;-72
2021/07/13 12:40:09;;;;;;;2.80;2.33;;;19.30;99.90;;;;;;5076684;28;20642;-72
2021/07/13 12:42:38;;;;;;;4.55;2.25;;;19.10;99.90;;;;;;5074152;28;20747;-72
2021/07/13 12:45:11;;;;;;;5.03;2.50;;;18.90;99.90;;;;;;5071285;28;20209;-73
2021/07/13 12:47:39;;;;;;;2.47;1.85;;;18.80;99.90;;;;;;5071308;28;20680;-71
2021/07/13 12:50:21;;;;;;;5.05;2.20;;;18.90;99.90;;;;;;5071469;28;20210;-73
2021/07/13 12:52:54;;;;;;;2.65;2.20;;;18.70;99.90;;;;;;5072525;28;20209;-73
2021/07/13 12:55:28;;;;;;;4.80;2.15;;;18.70;99.90;;;;;;5066741;28;20248;-74
2021/07/13 12:58:10;;;;;;;3.53;2.13;;;18.70;99.90;;;;;;5079905;28;21113;-79
2021/07/13 13:00:38;;;;;;;3.95;1.90;;;19.30;99.90;;;;;;5073993;28;20677;-83